createdAt,value
2022-08-25T00:01:54.377Z,95188.41
2022-08-25T00:04:24.528Z,95183.38
2022-08-25T00:06:59.336Z,95174.31
2022-08-25T00:09:29.387Z,95180.22
2022-08-25T00:11:57.418Z,95170.78
2022-08-25T00:14:33.587Z,95171.38
2022-08-25T00:17:03.419Z,95177.75
2022-08-25T00:22:19.831Z,95187.94
2022-08-25T00:24:47.790Z,95190.41
2022-08-25T00:27:15.793Z,95198.06
2022-08-25T00:29:43.741Z,95203.88
2022-08-25T00:32:13.346Z,95209.72
2022-08-25T00:34:41.314Z,95217.19
2022-08-25T00:37:10.451Z,95217.19
2022-08-25T00:39:39.670Z,95210.28
2022-08-25T00:42:15.897Z,95212.44
2022-08-25T00:44:45.105Z,95216.19
2022-08-25T00:47:14.726Z,95215.69
2022-08-25T00:49:46.053Z,95215.78
2022-08-25T00:52:17.483Z,95205.75
2022-08-25T00:54:51.230Z,95208.88
2022-08-25T00:57:34.874Z,95197.28
2022-08-25T01:00:08.073Z,95198.84
2022-08-25T01:02:37.968Z,95207.13
2022-08-25T01:05:07.157Z,95189.78
2022-08-25T01:07:35.249Z,95198.41
2022-08-25T01:10:03.625Z,95198.41
2022-08-25T01:12:31.744Z,95195.25
2022-08-25T01:14:59.937Z,95200.06
2022-08-25T01:17:35.098Z,95195.91
2022-08-25T01:20:05.691Z,95199.56
2022-08-25T01:22:35.160Z,95203.88
2022-08-25T01:25:06.968Z,95197.00
2022-08-25T01:27:34.930Z,95195.44
2022-08-25T01:30:02.919Z,95190.13
2022-08-25T01:32:34.976Z,95196.41
2022-08-25T01:35:03.033Z,95191.19
2022-08-25T01:37:30.988Z,95190.25
2022-08-25T01:40:00.381Z,95182.50
2022-08-25T01:42:43.501Z,95179.34
2022-08-25T01:45:11.547Z,95184.66
2022-08-25T01:47:39.883Z,95194.16
2022-08-25T01:50:08.954Z,95196.50
2022-08-25T01:52:51.054Z,95193.28
2022-08-25T01:55:20.557Z,95193.94
2022-08-25T01:57:48.609Z,95206.72
2022-08-25T02:00:18.654Z,95200.97
2022-08-25T02:02:47.293Z,95197.81
2022-08-25T02:05:23.574Z,95189.78
2022-08-25T02:07:51.943Z,95204.25
2022-08-25T02:10:22.545Z,95201.31
2022-08-25T02:12:51.745Z,95198.69
2022-08-25T02:15:22.539Z,95195.31
2022-08-25T02:17:50.552Z,95201.41
2022-08-25T02:20:19.080Z,95200.34
2022-08-25T02:22:56.751Z,95188.63
2022-08-25T02:25:26.576Z,95181.75
2022-08-25T02:27:54.663Z,95181.75
2022-08-25T02:30:22.742Z,95177.22
2022-08-25T02:35:19.547Z,95172.78
2022-08-25T02:37:47.581Z,95172.28
2022-08-25T02:40:15.560Z,95179.19
2022-08-25T02:42:45.378Z,95177.81
2022-08-25T02:45:14.040Z,95170.72
2022-08-25T02:47:42.049Z,95177.59
2022-08-25T02:50:11.061Z,95176.00
2022-08-25T02:52:39.948Z,95169.13
2022-08-25T02:55:12.855Z,95173.94
2022-08-25T02:57:42.029Z,95172.94
2022-08-25T03:00:14.612Z,95170.03
2022-08-25T03:02:43.250Z,95177.75
2022-08-25T03:05:12.907Z,95175.59
2022-08-25T03:07:41.486Z,95172.44
2022-08-25T03:10:13.394Z,95174.56
2022-08-25T03:12:42.473Z,95176.72
2022-08-25T03:15:15.426Z,95171.97
2022-08-25T03:17:45.444Z,95163.50
2022-08-25T03:20:15.419Z,95161.94
2022-08-25T03:22:43.794Z,95156.06
2022-08-25T03:25:29.941Z,95158.19
2022-08-25T03:27:58.276Z,95153.19
2022-08-25T03:30:28.445Z,95155.06
2022-08-25T03:32:56.554Z,95155.63
2022-08-25T03:35:24.702Z,95158.63
2022-08-25T03:37:56.718Z,95153.59
2022-08-25T03:40:25.022Z,95149.63
2022-08-25T03:42:53.069Z,95155.16
2022-08-25T03:45:21.157Z,95155.75
2022-08-25T03:47:52.046Z,95164.78
2022-08-25T03:50:22.042Z,95157.31
2022-08-25T03:52:53.808Z,95153.66
2022-08-25T03:55:24.041Z,95156.88
2022-08-25T03:57:52.107Z,95159.81
2022-08-25T04:00:20.825Z,95159.59
2022-08-25T04:02:50.593Z,95161.75
2022-08-25T04:05:20.308Z,95155.41
2022-08-25T04:07:48.274Z,95166.03
2022-08-25T04:10:17.636Z,95172.69
2022-08-25T04:12:45.582Z,95166.03
2022-08-25T04:15:13.625Z,95166.59
2022-08-25T04:17:42.290Z,95164.44
2022-08-25T04:20:14.287Z,95166.59
2022-08-25T04:22:44.933Z,95166.59
2022-08-25T04:25:13.561Z,95164.44
2022-08-25T04:27:42.151Z,95162.88
2022-08-25T04:30:11.470Z,95159.94
2022-08-25T04:32:39.464Z,95161.28
2022-08-25T04:35:08.773Z,95163.94
2022-08-25T04:37:38.180Z,95152.25
2022-08-25T04:40:06.852Z,95154.41
2022-08-25T04:42:35.347Z,95154.63
2022-08-25T04:45:04.346Z,95148.53
2022-08-25T04:47:32.377Z,95156.56
2022-08-25T04:50:00.428Z,95157.09
2022-08-25T04:52:28.479Z,95169.25
2022-08-25T04:54:57.806Z,95169.28
2022-08-25T04:57:25.743Z,95161.56
2022-08-25T04:59:54.234Z,95159.59
2022-08-25T05:02:22.465Z,95161.25
2022-08-25T05:04:50.446Z,95165.41
2022-08-25T05:07:18.428Z,95160.03
2022-08-25T05:09:46.443Z,95165.53
2022-08-25T05:12:15.759Z,95163.19
2022-08-25T05:14:43.938Z,95167.91
2022-08-25T05:17:11.953Z,95168.94
2022-08-25T05:19:39.934Z,95168.34
2022-08-25T05:22:07.897Z,95170.50
2022-08-25T05:24:35.895Z,95173.16
2022-08-25T05:27:04.107Z,95179.47
2022-08-25T05:29:33.496Z,95175.75
2022-08-25T05:32:01.538Z,95177.31
2022-08-25T05:34:30.254Z,95176.03
2022-08-25T05:37:00.202Z,95167.28
2022-08-25T05:39:32.338Z,95172.59
2022-08-25T05:42:00.303Z,95171.00
2022-08-25T05:44:28.568Z,95172.59
2022-08-25T05:46:57.986Z,95174.72
2022-08-25T05:49:26.018Z,95182.19
2022-08-25T05:51:54.025Z,95176.88
2022-08-25T05:54:21.992Z,95174.16
2022-08-25T05:56:50.191Z,95170.44
2022-08-25T05:59:18.501Z,95169.31
2022-08-25T06:02:03.762Z,95165.00
2022-08-25T06:04:33.629Z,95171.09
2022-08-25T06:07:01.666Z,95165.56
2022-08-25T06:09:29.675Z,95180.41
2022-08-25T06:11:57.781Z,95176.69
2022-08-25T06:14:27.450Z,95169.81
2022-08-25T06:16:55.468Z,95167.72
2022-08-25T06:19:23.910Z,95171.91
2022-08-25T06:21:56.512Z,95172.16
2022-08-25T06:24:26.026Z,95168.28
2022-08-25T06:26:54.481Z,95170.06
2022-08-25T06:29:22.693Z,95170.66
2022-08-25T06:31:50.979Z,95175.16
2022-08-25T06:34:19.655Z,95173.22
2022-08-25T06:36:51.807Z,95174.03
2022-08-25T06:39:21.622Z,95163.66
2022-08-25T06:41:52.939Z,95164.16
2022-08-25T06:44:21.040Z,95161.44
2022-08-25T06:46:49.214Z,95166.66
2022-08-25T06:49:17.252Z,95164.19
2022-08-25T06:51:45.916Z,95162.44
2022-08-25T06:54:14.100Z,95166.41
2022-08-25T06:56:43.762Z,95167.38
2022-08-25T06:59:12.159Z,95171.31
2022-08-25T07:01:40.424Z,95180.22
2022-08-25T07:04:13.169Z,95184.16
2022-08-25T07:06:41.888Z,95181.41
2022-08-25T07:09:10.862Z,95192.28
2022-08-25T07:11:39.437Z,95183.63
2022-08-25T07:14:10.980Z,95179.16
2022-08-25T07:16:40.513Z,95175.09
2022-08-25T07:19:09.664Z,95177.09
2022-08-25T07:21:45.889Z,95175.72
2022-08-25T07:24:15.195Z,95165.31
2022-08-25T07:26:43.987Z,95173.06
2022-08-25T07:29:16.347Z,95170.84
2022-08-25T07:31:46.012Z,95182.84
2022-08-25T07:34:31.728Z,95178.94
2022-08-25T07:37:00.204Z,95162.44
2022-08-25T07:39:29.145Z,95168.84
2022-08-25T07:41:57.275Z,95169.63
2022-08-25T07:44:28.048Z,95167.69
2022-08-25T07:46:57.334Z,95179.06
2022-08-25T07:49:35.943Z,95172.56
2022-08-25T07:52:07.838Z,95173.19
2022-08-25T07:54:38.442Z,95171.00
2022-08-25T07:57:08.744Z,95166.03
2022-08-25T07:59:41.192Z,95174.72
2022-08-25T08:02:16.030Z,95171.25
2022-08-25T08:04:49.381Z,95168.22
2022-08-25T08:07:19.700Z,95180.81
2022-08-25T08:09:55.812Z,95172.13
2022-08-25T08:12:24.520Z,95171.53
2022-08-25T08:14:54.376Z,95169.72
2022-08-25T08:17:22.736Z,95178.19
2022-08-25T08:19:50.817Z,95170.31
2022-08-25T08:22:19.561Z,95167.09
2022-08-25T08:24:54.181Z,95172.19
2022-08-25T08:27:23.041Z,95179.09
2022-08-25T08:29:51.155Z,95175.69
2022-08-25T08:32:20.832Z,95180.41
2022-08-25T08:34:53.582Z,95174.19
2022-08-25T08:37:22.879Z,95172.53
2022-08-25T08:39:52.647Z,95174.28
2022-08-25T08:42:39.721Z,95170.97
2022-08-25T08:45:18.449Z,95165.50
2022-08-25T08:48:00.201Z,95167.22
2022-08-25T08:50:35.753Z,95159.44
2022-08-25T08:53:10.286Z,95163.13
2022-08-25T08:55:41.429Z,95164.28
2022-08-25T08:58:12.950Z,95168.38
2022-08-25T09:00:52.405Z,95167.78
2022-08-25T09:03:32.904Z,95165.59
2022-08-25T09:06:04.598Z,95163.78
2022-08-25T09:08:35.263Z,95166.13
2022-08-25T09:11:11.290Z,95163.97
2022-08-25T09:14:04.472Z,95159.63
2022-08-25T09:16:58.163Z,95166.06
2022-08-25T09:19:59.852Z,95170.47
2022-08-25T09:22:41.009Z,95162.31
2022-08-25T09:25:22.003Z,95164.34
2022-08-25T09:28:06.264Z,95164.50
2022-08-25T09:30:45.290Z,95161.41
2022-08-25T09:33:21.094Z,95152.63
2022-08-25T09:35:53.673Z,95149.22
2022-08-25T09:38:22.433Z,95158.03
2022-08-25T09:40:53.403Z,95147.19
2022-08-25T09:43:30.246Z,95146.44
2022-08-25T09:46:02.385Z,95142.31
2022-08-25T09:48:39.775Z,95142.66
2022-08-25T09:51:19.797Z,95143.13
2022-08-25T09:53:53.568Z,95140.13
2022-08-25T09:56:24.009Z,95135.09
2022-08-25T09:58:58.199Z,95139.34
2022-08-25T10:01:34.820Z,95138.44
2022-08-25T10:04:04.951Z,95137.94
2022-08-25T10:06:44.120Z,95139.19
2022-08-25T10:09:26.684Z,95133.34
2022-08-25T10:11:57.739Z,95138.53
2022-08-25T10:14:35.057Z,95127.28
2022-08-25T10:17:27.625Z,95125.56
2022-08-25T10:20:17.257Z,95118.28
2022-08-25T10:22:48.274Z,95110.72
2022-08-25T10:25:26.705Z,95105.66
2022-08-25T10:28:05.925Z,95104.84
2022-08-25T10:30:53.586Z,95105.94
2022-08-25T10:33:34.405Z,95094.59
2022-08-25T10:36:13.216Z,95097.72
2022-08-25T10:38:45.381Z,95092.91
2022-08-25T10:41:27.935Z,95092.53
2022-08-25T10:44:05.015Z,95092.16
2022-08-25T10:46:41.466Z,95082.34
2022-08-25T10:49:19.631Z,95084.88
2022-08-25T10:51:59.154Z,95080.69
2022-08-25T10:54:47.771Z,95080.28
2022-08-25T10:57:23.769Z,95079.78
2022-08-25T11:00:05.912Z,95080.56
2022-08-25T11:03:01.290Z,95070.88
2022-08-25T11:05:33.082Z,95069.28
2022-08-25T11:08:09.659Z,95064.16
2022-08-25T11:10:46.080Z,95071.09
2022-08-25T11:13:26.881Z,95066.63
2022-08-25T11:16:16.683Z,95065.56
2022-08-25T11:18:56.571Z,95061.75
2022-08-25T11:21:32.818Z,95055.72
2022-08-25T11:24:11.916Z,95056.66
2022-08-25T11:26:55.052Z,95056.66
2022-08-25T11:29:26.610Z,95056.88
2022-08-25T11:31:55.456Z,95047.03
2022-08-25T11:34:24.686Z,95049.28
2022-08-25T11:36:56.095Z,95052.19
2022-08-25T11:39:41.102Z,95046.38
2022-08-25T11:42:27.142Z,95043.91
2022-08-25T11:45:03.637Z,95042.94
2022-08-25T11:48:02.173Z,95040.59
2022-08-25T11:50:35.082Z,95042.38
2022-08-25T11:53:23.670Z,95043.50
2022-08-25T11:55:58.775Z,95037.88
2022-08-25T11:58:47.604Z,95043.25
2022-08-25T12:01:57.358Z,95047.50
2022-08-25T12:04:44.250Z,95034.94
2022-08-25T12:07:28.869Z,95029.22
2022-08-25T12:10:19.472Z,95022.88
2022-08-25T12:13:04.818Z,95026.22
2022-08-25T12:16:03.180Z,95021.50
2022-08-25T12:18:45.646Z,95019.28
2022-08-25T12:21:17.660Z,95023.97
2022-08-25T12:24:05.137Z,95023.38
2022-08-25T12:26:43.015Z,95017.81
2022-08-25T12:29:21.541Z,95022.34
2022-08-25T12:32:20.131Z,95006.88
2022-08-25T12:35:17.274Z,95006.88
2022-08-25T12:37:56.736Z,95010.56
2022-08-25T12:40:29.096Z,95012.94
2022-08-25T12:43:26.331Z,95006.97
2022-08-25T12:45:56.443Z,95008.44
2022-08-25T12:48:56.988Z,95005.97
2022-08-25T12:51:27.968Z,95011.47
2022-08-25T12:54:01.997Z,95008.44
2022-08-25T12:56:39.448Z,95001.06
2022-08-25T12:59:18.439Z,95009.50
2022-08-25T13:02:14.014Z,95004.53
2022-08-25T13:05:02.709Z,95011.56
2022-08-25T13:07:47.580Z,95003.13
2022-08-25T13:10:44.789Z,94995.59
2022-08-25T13:13:20.927Z,94995.00
2022-08-25T13:16:00.284Z,94995.53
2022-08-25T13:18:30.845Z,95000.59
2022-08-25T13:21:09.727Z,94988.69
2022-08-25T13:23:42.068Z,94987.09
2022-08-25T13:26:13.836Z,94985.97
2022-08-25T13:28:50.394Z,94986.81
2022-08-25T13:31:22.146Z,94988.31
2022-08-25T13:33:55.661Z,94986.81
2022-08-25T13:36:47.482Z,94983.00
2022-08-25T13:39:45.679Z,94989.28
2022-08-25T13:42:15.321Z,94981.63
2022-08-25T13:44:52.456Z,94985.31
2022-08-25T13:47:45.370Z,94981.75
2022-08-25T13:50:20.294Z,94979.50
2022-08-25T13:52:52.125Z,94975.28
2022-08-25T13:55:27.408Z,94973.31
2022-08-25T13:57:55.751Z,94967.34
2022-08-25T14:00:33.122Z,94973.75
2022-08-25T14:03:08.725Z,94967.78
2022-08-25T14:05:45.583Z,94965.94
2022-08-25T14:11:14.923Z,94969.34
2022-08-25T14:13:46.049Z,94962.00
2022-08-25T14:16:20.813Z,94963.16
2022-08-25T14:18:53.292Z,94956.81
2022-08-25T14:21:24.813Z,94964.09
2022-08-25T14:23:54.312Z,94965.50
2022-08-25T14:26:23.999Z,94959.66
2022-08-25T14:28:54.670Z,94950.69
2022-08-25T14:31:28.560Z,94954.72
2022-08-25T14:34:00.618Z,94954.16
2022-08-25T14:36:32.458Z,94947.59
2022-08-25T14:39:00.587Z,94944.47
2022-08-25T14:41:31.066Z,94954.66
2022-08-25T14:43:59.127Z,94952.25
2022-08-25T14:46:33.875Z,94948.50
2022-08-25T14:49:05.776Z,94940.63
2022-08-25T14:51:36.205Z,94943.88
2022-08-25T14:54:07.862Z,94939.69
2022-08-25T14:56:38.363Z,94942.00
2022-08-25T14:59:11.184Z,94938.94
2022-08-25T15:01:39.195Z,94937.44
2022-08-25T15:04:10.628Z,94932.13
2022-08-25T15:06:41.915Z,94938.53
2022-08-25T15:09:13.628Z,94927.84
2022-08-25T15:11:45.082Z,94926.28
2022-08-25T15:14:15.640Z,94916.06
2022-08-25T15:16:46.428Z,94921.97
2022-08-25T15:19:17.306Z,94908.22
2022-08-25T15:21:46.847Z,94912.25
2022-08-25T15:24:17.220Z,94912.16
2022-08-25T15:29:25.438Z,94910.22
2022-08-25T15:31:53.677Z,94901.97
2022-08-25T15:34:21.740Z,94915.25
2022-08-25T15:36:50.316Z,94919.28
2022-08-25T15:39:19.589Z,94910.47
2022-08-25T15:41:52.170Z,94915.44
2022-08-25T15:44:20.440Z,94921.72
2022-08-25T15:46:50.166Z,94916.72
2022-08-25T15:49:20.934Z,94910.41
2022-08-25T15:51:52.423Z,94897.47
2022-08-25T15:54:20.745Z,94908.63
2022-08-25T15:56:50.336Z,94904.81
2022-08-25T15:59:21.710Z,94903.63
2022-08-25T16:01:53.438Z,94896.81
2022-08-25T16:04:22.507Z,94908.78
2022-08-25T16:06:51.921Z,94899.69
2022-08-25T16:09:22.871Z,94897.47
2022-08-25T16:11:55.707Z,94896.91
2022-08-25T16:14:26.106Z,94895.38
2022-08-25T16:16:58.218Z,94895.53
2022-08-25T16:19:28.505Z,94887.53
2022-08-25T16:21:56.792Z,94885.69
2022-08-25T16:24:25.271Z,94887.31
2022-08-25T16:26:55.806Z,94884.22
2022-08-25T16:29:24.093Z,94891.44
2022-08-25T16:31:53.234Z,94886.38
2022-08-25T16:34:24.598Z,94884.09
2022-08-25T16:36:53.251Z,94880.38
2022-08-25T16:39:21.263Z,94885.81
2022-08-25T16:41:50.179Z,94880.47
2022-08-25T16:44:22.708Z,94876.31
2022-08-25T16:46:54.369Z,94878.97
2022-08-25T16:49:24.169Z,94880.38
2022-08-25T16:51:57.081Z,94871.88
2022-08-25T16:54:43.989Z,94876.25
2022-08-25T16:57:12.215Z,94877.78
2022-08-25T16:59:42.580Z,94875.66
2022-08-25T17:02:12.210Z,94877.81
2022-08-25T17:04:40.822Z,94878.47
2022-08-25T17:07:09.047Z,94880.97
2022-08-25T17:09:37.212Z,94874.28
2022-08-25T17:12:05.616Z,94880.38
2022-08-25T17:14:33.674Z,94878.66
2022-08-25T17:17:04.070Z,94873.66
2022-08-25T17:19:35.339Z,94874.84
2022-08-25T17:22:03.364Z,94873.38
2022-08-25T17:24:33.754Z,94872.66
2022-08-25T17:27:02.806Z,94875.34
2022-08-25T17:29:30.853Z,94875.84
2022-08-25T17:31:59.355Z,94876.81
2022-08-25T17:34:29.153Z,94870.78
2022-08-25T17:36:59.687Z,94864.75
2022-08-25T17:39:28.594Z,94862.31
2022-08-25T17:41:56.622Z,94867.75
2022-08-25T17:44:24.662Z,94860.41
2022-08-25T17:46:52.730Z,94866.28
2022-08-25T17:49:20.746Z,94862.03
2022-08-25T17:51:50.204Z,94865.59
2022-08-25T17:54:18.851Z,94861.56
2022-08-25T17:56:46.809Z,94856.88
2022-08-25T17:59:16.416Z,94856.75
2022-08-25T18:01:45.673Z,94860.44
2022-08-25T18:04:15.633Z,94858.22
2022-08-25T18:06:46.820Z,94871.19
2022-08-25T18:09:17.397Z,94863.56
2022-08-25T18:11:46.090Z,94871.78
2022-08-25T18:14:16.701Z,94872.13
2022-08-25T18:16:44.804Z,94889.31
2022-08-25T18:19:14.379Z,94876.81
2022-08-25T18:21:43.614Z,94884.22
2022-08-25T18:24:13.473Z,94895.41
2022-08-25T18:26:43.076Z,94895.97
2022-08-25T18:29:13.274Z,94897.41
2022-08-25T18:31:42.439Z,94901.75
2022-08-25T18:34:11.631Z,94903.84
2022-08-25T18:36:41.781Z,94907.44
2022-08-25T18:39:30.501Z,94916.34
2022-08-25T18:42:03.870Z,94909.19
2022-08-25T18:44:33.310Z,94912.09
2022-08-25T18:47:06.495Z,94909.75
2022-08-25T18:49:37.137Z,94920.34
2022-08-25T18:52:07.458Z,94922.56
2022-08-25T18:54:36.002Z,94931.94
2022-08-25T18:57:08.160Z,94929.03
2022-08-25T18:59:37.163Z,94933.22
2022-08-25T19:02:05.528Z,94935.97
2022-08-25T19:04:33.685Z,94935.84
2022-08-25T19:07:02.024Z,94933.81
2022-08-25T19:09:31.858Z,94938.25
2022-08-25T19:11:59.858Z,94948.41
2022-08-25T19:14:29.836Z,94949.19
2022-08-25T19:16:59.406Z,94952.06
2022-08-25T19:19:29.149Z,94952.72
2022-08-25T19:21:58.045Z,94949.59
2022-08-25T19:24:28.242Z,94951.78
2022-08-25T19:26:56.926Z,94952.44
2022-08-25T19:29:26.232Z,94957.81
2022-08-25T19:31:56.747Z,94952.00
2022-08-25T19:34:38.168Z,94955.31
2022-08-25T19:37:07.308Z,94956.00
2022-08-25T19:39:39.270Z,94952.41
2022-08-25T19:42:08.550Z,94951.00
2022-08-25T19:44:56.791Z,94959.84
2022-08-25T19:47:26.203Z,94969.66
2022-08-25T19:49:55.334Z,94952.03
2022-08-25T19:52:26.526Z,94960.06
2022-08-25T19:54:54.826Z,94962.06
2022-08-25T19:57:28.650Z,94957.38
2022-08-25T20:00:15.144Z,94970.63
2022-08-25T20:02:45.855Z,94969.84
2022-08-25T20:05:15.473Z,94974.09
2022-08-25T20:07:52.035Z,94977.22
2022-08-25T20:10:20.876Z,94977.22
2022-08-25T20:12:49.043Z,94990.16
2022-08-25T20:15:17.616Z,94985.53
2022-08-25T20:17:47.608Z,94981.38
2022-08-25T20:20:18.804Z,94991.31
2022-08-25T20:22:47.820Z,95005.06
2022-08-25T20:25:17.613Z,95004.13
2022-08-25T20:27:50.170Z,95007.09
2022-08-25T20:30:22.916Z,95015.25
2022-08-25T20:32:54.485Z,95010.34
2022-08-25T20:35:26.586Z,95014.25
2022-08-25T20:37:56.242Z,95015.84
2022-08-25T20:40:26.253Z,95016.63
2022-08-25T20:42:54.806Z,95022.75
2022-08-25T20:45:23.340Z,95028.09
2022-08-25T20:47:53.047Z,95024.31
2022-08-25T20:50:22.846Z,95030.47
2022-08-25T20:52:52.155Z,95030.47
2022-08-25T20:55:20.556Z,95025.75
2022-08-25T20:57:49.520Z,95030.97
2022-08-25T21:00:19.424Z,95028.94
2022-08-25T21:02:54.131Z,95032.72
2022-08-25T21:05:22.600Z,95037.59
2022-08-25T21:07:50.594Z,95044.50
2022-08-25T21:10:19.029Z,95035.53
2022-08-25T21:12:49.105Z,95038.66
2022-08-25T21:15:21.455Z,95040.09
2022-08-25T21:17:54.399Z,95043.88
2022-08-25T21:20:24.748Z,95040.72
2022-08-25T21:22:53.435Z,95036.03
2022-08-25T21:25:21.830Z,95032.25
2022-08-25T21:27:49.879Z,95036.66
2022-08-25T21:30:18.822Z,95032.75
2022-08-25T21:32:53.336Z,95024.91
2022-08-25T21:35:23.733Z,95033.84
2022-08-25T21:37:52.993Z,95039.19
2022-08-25T21:40:22.771Z,95029.13
2022-08-25T21:42:51.091Z,95033.69
2022-08-25T21:45:21.041Z,95035.59
2022-08-25T21:47:50.032Z,95035.91
2022-08-25T21:50:20.020Z,95037.31
2022-08-25T21:52:54.273Z,95046.28
2022-08-25T21:55:23.374Z,95043.59
2022-08-25T21:57:51.528Z,95041.41
2022-08-25T22:00:21.418Z,95040.63
2022-08-25T22:02:49.798Z,95041.09
2022-08-25T22:05:18.039Z,95041.75
2022-08-25T22:07:46.155Z,95038.59
2022-08-25T22:10:16.750Z,95039.84
2022-08-25T22:12:46.162Z,95042.03
2022-08-25T22:15:15.616Z,95038.28
2022-08-25T22:17:43.660Z,95047.38
2022-08-25T22:20:12.803Z,95048.34
2022-08-25T22:22:40.866Z,95034.47
2022-08-25T22:25:09.388Z,95032.31
2022-08-25T22:27:38.918Z,95037.97
2022-08-25T22:30:08.928Z,95045.50
2022-08-25T22:32:36.909Z,95043.47
2022-08-25T22:35:05.764Z,95043.94
2022-08-25T22:37:34.124Z,95036.41
2022-08-25T22:40:05.261Z,95039.22
2022-08-25T22:42:33.333Z,95039.81
2022-08-25T22:45:02.726Z,95032.91
2022-08-25T22:47:31.234Z,95028.19
2022-08-25T22:49:59.477Z,95033.22
2022-08-25T22:52:33.317Z,95022.53
2022-08-25T22:55:02.818Z,95026.31
2022-08-25T22:57:30.911Z,95024.09
2022-08-25T22:59:59.292Z,95028.66
2022-08-25T23:02:30.292Z,95022.53
2022-08-25T23:05:00.918Z,95025.69
2022-08-25T23:07:29.875Z,95025.84
2022-08-25T23:09:59.730Z,95021.91
2022-08-25T23:12:27.746Z,95021.75
2022-08-25T23:14:55.852Z,95036.66
2022-08-25T23:17:23.811Z,95030.38
2022-08-25T23:19:53.145Z,95030.09
2022-08-25T23:22:20.175Z,95020.03
2022-08-25T23:24:52.772Z,95024.09
2022-08-25T23:27:22.651Z,95015.47
2022-08-25T23:29:51.217Z,95021.59
2022-08-25T23:32:19.624Z,95015.63
2022-08-25T23:34:48.037Z,95018.91
2022-08-25T23:37:18.514Z,95011.84
2022-08-25T23:39:49.823Z,95010.28
2022-08-25T23:42:19.511Z,95005.88
2022-08-25T23:44:48.083Z,94999.75
2022-08-25T23:47:16.152Z,95004.00
2022-08-25T23:49:44.229Z,95006.38
2022-08-25T23:52:12.317Z,94997.88
2022-08-25T23:54:41.637Z,95003.38
2022-08-25T23:57:09.584Z,94997.72
2022-08-25T23:59:38.338Z,94999.41
